sensor_id;sensor_type;location;lat;lon;timestamp;temperature;humidity
324;DHT22;149;51.094;17.002;2023-09-19T00:00:57;19.40;99.90
324;DHT22;149;51.094;17.002;2023-09-19T00:03:24;19.30;99.90
324;DHT22;149;51.094;17.002;2023-09-19T00:05:55;19.40;99.90
324;DHT22;149;51.094;17.002;2023-09-19T00:08:24;19.30;99.90
324;DHT22;149;51.094;17.002;2023-09-19T00:10:51;19.30;99.90
324;DHT22;149;51.094;17.002;2023-09-19T00:13:22;19.30;99.90
324;DHT22;149;51.094;17.002;2023-09-19T00:15:50;19.30;99.90
324;DHT22;149;51.094;17.002;2023-09-19T00:18:20;19.30;99.90
324;DHT22;149;51.094;17.002;2023-09-19T00:20:49;19.20;99.90
324;DHT22;149;51.094;17.002;2023-09-19T00:23:19;19.10;99.90
324;DHT22;149;51.094;17.002;2023-09-19T00:28:22;19.10;99.90
324;DHT22;149;51.094;17.002;2023-09-19T00:30:50;19.20;99.90
324;DHT22;149;51.094;17.002;2023-09-19T00:35:55;19.10;99.90
324;DHT22;149;51.094;17.002;2023-09-19T00:46:22;19.10;99.90
324;DHT22;149;51.094;17.002;2023-09-19T00:51:31;19.10;99.90
324;DHT22;149;51.094;17.002;2023-09-19T00:53:59;19.10;99.90
324;DHT22;149;51.094;17.002;2023-09-19T01:07:08;18.90;99.90
324;DHT22;149;51.094;17.002;2023-09-19T01:09:36;18.90;99.90
324;DHT22;149;51.094;17.002;2023-09-19T01:12:05;18.80;99.90
324;DHT22;149;51.094;17.002;2023-09-19T01:20:26;19.00;99.90
324;DHT22;149;51.094;17.002;2023-09-19T01:30:47;18.80;99.90
324;DHT22;149;51.094;17.002;2023-09-19T01:33:16;18.80;99.90
324;DHT22;149;51.094;17.002;2023-09-19T01:35:44;18.70;99.90
324;DHT22;149;51.094;17.002;2023-09-19T01:43:38;18.50;99.90
324;DHT22;149;51.094;17.002;2023-09-19T02:05:01;18.20;99.90
324;DHT22;149;51.094;17.002;2023-09-19T02:12:42;18.20;99.90
324;DHT22;149;51.094;17.002;2023-09-19T02:15:32;18.20;99.90
324;DHT22;149;51.094;17.002;2023-09-19T02:18:21;18.20;99.90
324;DHT22;149;51.094;17.002;2023-09-19T02:23:54;18.10;99.90
324;DHT22;149;51.094;17.002;2023-09-19T02:26:22;18.20;99.90
324;DHT22;149;51.094;17.002;2023-09-19T02:28:52;18.10;99.90
324;DHT22;149;51.094;17.002;2023-09-19T02:31:22;18.00;99.90
324;DHT22;149;51.094;17.002;2023-09-19T02:33:52;18.00;99.90
324;DHT22;149;51.094;17.002;2023-09-19T02:36:25;18.00;99.90
324;DHT22;149;51.094;17.002;2023-09-19T02:39:22;18.00;99.90
324;DHT22;149;51.094;17.002;2023-09-19T02:41:54;18.00;99.90
324;DHT22;149;51.094;17.002;2023-09-19T02:56:22;17.90;99.90
324;DHT22;149;51.094;17.002;2023-09-19T03:29:03;17.80;99.90
324;DHT22;149;51.094;17.002;2023-09-19T03:31:37;17.80;99.90
324;DHT22;149;51.094;17.002;2023-09-19T03:34:06;17.80;99.90
324;DHT22;149;51.094;17.002;2023-09-19T03:36:42;17.80;99.90
324;DHT22;149;51.094;17.002;2023-09-19T03:39:16;17.70;99.90
324;DHT22;149;51.094;17.002;2023-09-19T04:00:39;17.70;99.90
324;DHT22;149;51.094;17.002;2023-09-19T04:14:12;17.60;99.90
324;DHT22;149;51.094;17.002;2023-09-19T04:16:55;17.60;99.90
324;DHT22;149;51.094;17.002;2023-09-19T04:22:13;17.60;99.90
324;DHT22;149;51.094;17.002;2023-09-19T04:24:42;17.50;99.90
324;DHT22;149;51.094;17.002;2023-09-19T04:27:16;17.70;99.90
324;DHT22;149;51.094;17.002;2023-09-19T04:29:57;17.60;99.90
324;DHT22;149;51.094;17.002;2023-09-19T04:32:51;17.60;99.90
324;DHT22;149;51.094;17.002;2023-09-19T04:35:35;17.40;99.90
324;DHT22;149;51.094;17.002;2023-09-19T04:49:19;17.40;99.90
324;DHT22;149;51.094;17.002;2023-09-19T04:54:30;17.40;99.90
324;DHT22;149;51.094;17.002;2023-09-19T04:57:04;17.50;99.90
324;DHT22;149;51.094;17.002;2023-09-19T05:02:11;17.30;99.90
324;DHT22;149;51.094;17.002;2023-09-19T05:31:59;17.80;99.90
324;DHT22;149;51.094;17.002;2023-09-19T05:34:29;17.90;99.90
324;DHT22;149;51.094;17.002;2023-09-19T05:37:01;18.00;99.90
324;DHT22;149;51.094;17.002;2023-09-19T05:39:32;18.20;99.90
324;DHT22;149;51.094;17.002;2023-09-19T05:42:03;18.00;99.90
324;DHT22;149;51.094;17.002;2023-09-19T05:44:36;18.10;99.90
324;DHT22;149;51.094;17.002;2023-09-19T05:47:07;18.10;99.90
324;DHT22;149;51.094;17.002;2023-09-19T05:49:42;18.10;99.90
324;DHT22;149;51.094;17.002;2023-09-19T05:52:14;18.30;99.90
324;DHT22;149;51.094;17.002;2023-09-19T05:54:47;18.30;99.90
324;DHT22;149;51.094;17.002;2023-09-19T05:57:16;18.30;99.90
324;DHT22;149;51.094;17.002;2023-09-19T05:59:46;18.40;99.90
324;DHT22;149;51.094;17.002;2023-09-19T06:02:20;18.70;99.90
324;DHT22;149;51.094;17.002;2023-09-19T06:04:49;18.80;99.90
324;DHT22;149;51.094;17.002;2023-09-19T06:07:19;18.90;99.90
324;DHT22;149;51.094;17.002;2023-09-19T06:09:49;19.10;99.90
324;DHT22;149;51.094;17.002;2023-09-19T06:12:28;19.20;99.90
324;DHT22;149;51.094;17.002;2023-09-19T06:14:57;19.40;99.90
324;DHT22;149;51.094;17.002;2023-09-19T06:17:26;19.50;99.90
324;DHT22;149;51.094;17.002;2023-09-19T06:19:55;19.40;99.90
324;DHT22;149;51.094;17.002;2023-09-19T06:22:23;19.40;99.90
324;DHT22;149;51.094;17.002;2023-09-19T06:24:53;19.40;99.90
324;DHT22;149;51.094;17.002;2023-09-19T06:27:21;19.30;99.90
324;DHT22;149;51.094;17.002;2023-09-19T06:29:50;19.30;99.90
324;DHT22;149;51.094;17.002;2023-09-19T06:32:19;19.20;99.90
324;DHT22;149;51.094;17.002;2023-09-19T06:34:54;19.10;99.90
324;DHT22;149;51.094;17.002;2023-09-19T06:37:22;19.10;99.90
324;DHT22;149;51.094;17.002;2023-09-19T06:39:49;19.20;99.90
324;DHT22;149;51.094;17.002;2023-09-19T06:42:17;19.20;99.90
324;DHT22;149;51.094;17.002;2023-09-19T06:44:48;19.20;99.90
324;DHT22;149;51.094;17.002;2023-09-19T06:47:15;19.20;99.90
324;DHT22;149;51.094;17.002;2023-09-19T06:49:44;19.30;99.90
324;DHT22;149;51.094;17.002;2023-09-19T06:52:12;19.30;99.90
324;DHT22;149;51.094;17.002;2023-09-19T06:54:44;19.50;99.90
324;DHT22;149;51.094;17.002;2023-09-19T06:57:16;19.70;99.90
324;DHT22;149;51.094;17.002;2023-09-19T06:59:43;20.00;99.90
324;DHT22;149;51.094;17.002;2023-09-19T07:02:12;20.10;99.90
324;DHT22;149;51.094;17.002;2023-09-19T07:04:40;20.20;99.90
324;DHT22;149;51.094;17.002;2023-09-19T07:07:08;20.40;99.90
324;DHT22;149;51.094;17.002;2023-09-19T07:09:36;20.60;99.90
324;DHT22;149;51.094;17.002;2023-09-19T07:12:04;20.70;99.90
324;DHT22;149;51.094;17.002;2023-09-19T07:14:32;20.80;99.90
324;DHT22;149;51.094;17.002;2023-09-19T07:16:59;20.90;99.90
324;DHT22;149;51.094;17.002;2023-09-19T07:19:31;21.20;99.90
324;DHT22;149;51.094;17.002;2023-09-19T07:21:58;21.80;99.90
324;DHT22;149;51.094;17.002;2023-09-19T07:24:26;22.60;99.90
324;DHT22;149;51.094;17.002;2023-09-19T07:26:55;22.90;99.90
324;DHT22;149;51.094;17.002;2023-09-19T07:29:22;22.70;99.90
324;DHT22;149;51.094;17.002;2023-09-19T07:31:53;22.50;99.90
324;DHT22;149;51.094;17.002;2023-09-19T07:34:20;22.40;99.90
324;DHT22;149;51.094;17.002;2023-09-19T07:36:50;22.30;99.90
324;DHT22;149;51.094;17.002;2023-09-19T07:39:19;22.20;99.90
324;DHT22;149;51.094;17.002;2023-09-19T07:41:49;22.00;99.90
324;DHT22;149;51.094;17.002;2023-09-19T07:44:16;22.20;99.90
324;DHT22;149;51.094;17.002;2023-09-19T07:46:46;22.70;99.90
324;DHT22;149;51.094;17.002;2023-09-19T07:49:17;22.90;99.90
324;DHT22;149;51.094;17.002;2023-09-19T07:51:46;22.80;99.90
324;DHT22;149;51.094;17.002;2023-09-19T07:54:16;22.50;99.90
324;DHT22;149;51.094;17.002;2023-09-19T07:56:43;22.00;99.90
324;DHT22;149;51.094;17.002;2023-09-19T07:59:12;21.30;99.90
324;DHT22;149;51.094;17.002;2023-09-19T08:01:40;21.20;99.90
324;DHT22;149;51.094;17.002;2023-09-19T08:04:08;21.10;99.90
324;DHT22;149;51.094;17.002;2023-09-19T08:06:38;20.90;99.90
324;DHT22;149;51.094;17.002;2023-09-19T08:09:05;21.10;99.90
324;DHT22;149;51.094;17.002;2023-09-19T08:11:36;21.10;99.90
324;DHT22;149;51.094;17.002;2023-09-19T08:14:05;21.30;99.90
324;DHT22;149;51.094;17.002;2023-09-19T08:16:35;21.30;99.90
324;DHT22;149;51.094;17.002;2023-09-19T08:19:10;21.30;99.90
324;DHT22;149;51.094;17.002;2023-09-19T08:21:37;21.20;99.90
324;DHT22;149;51.094;17.002;2023-09-19T08:24:07;21.30;99.90
324;DHT22;149;51.094;17.002;2023-09-19T08:26:38;21.40;99.90
324;DHT22;149;51.094;17.002;2023-09-19T08:29:07;21.50;99.90
324;DHT22;149;51.094;17.002;2023-09-19T08:31:39;21.40;99.90
324;DHT22;149;51.094;17.002;2023-09-19T08:34:09;21.60;99.90
324;DHT22;149;51.094;17.002;2023-09-19T08:36:41;21.60;99.90
324;DHT22;149;51.094;17.002;2023-09-19T08:39:10;21.60;99.90
324;DHT22;149;51.094;17.002;2023-09-19T08:41:40;21.50;99.90
324;DHT22;149;51.094;17.002;2023-09-19T08:44:19;21.80;99.90
324;DHT22;149;51.094;17.002;2023-09-19T08:46:47;21.80;99.90
324;DHT22;149;51.094;17.002;2023-09-19T08:49:24;21.80;99.90
324;DHT22;149;51.094;17.002;2023-09-19T08:52:09;21.90;99.90
324;DHT22;149;51.094;17.002;2023-09-19T08:54:41;21.90;99.90
324;DHT22;149;51.094;17.002;2023-09-19T08:57:08;21.90;99.90
324;DHT22;149;51.094;17.002;2023-09-19T08:59:41;21.80;99.90
324;DHT22;149;51.094;17.002;2023-09-19T09:02:14;21.60;99.90
324;DHT22;149;51.094;17.002;2023-09-19T09:04:45;21.40;99.90
324;DHT22;149;51.094;17.002;2023-09-19T09:07:14;21.30;99.90
324;DHT22;149;51.094;17.002;2023-09-19T09:09:47;21.20;99.90
324;DHT22;149;51.094;17.002;2023-09-19T09:12:15;21.00;99.90
324;DHT22;149;51.094;17.002;2023-09-19T09:14:52;20.90;99.90
324;DHT22;149;51.094;17.002;2023-09-19T09:17:19;20.90;99.90
324;DHT22;149;51.094;17.002;2023-09-19T09:19:48;20.70;99.90
324;DHT22;149;51.094;17.002;2023-09-19T09:22:18;20.90;99.90
324;DHT22;149;51.094;17.002;2023-09-19T09:24:54;20.90;99.90
324;DHT22;149;51.094;17.002;2023-09-19T09:27:21;21.10;99.90
324;DHT22;149;51.094;17.002;2023-09-19T09:29:52;21.10;99.90
324;DHT22;149;51.094;17.002;2023-09-19T09:32:23;21.30;99.90
324;DHT22;149;51.094;17.002;2023-09-19T09:34:51;21.60;99.90
324;DHT22;149;51.094;17.002;2023-09-19T09:37:22;21.80;99.90
324;DHT22;149;51.094;17.002;2023-09-19T09:39:58;21.80;99.90
324;DHT22;149;51.094;17.002;2023-09-19T09:42:36;21.80;99.90
324;DHT22;149;51.094;17.002;2023-09-19T09:45:22;22.00;99.90
324;DHT22;149;51.094;17.002;2023-09-19T09:48:10;22.00;99.90
324;DHT22;149;51.094;17.002;2023-09-19T09:50:51;22.20;99.90
324;DHT22;149;51.094;17.002;2023-09-19T09:53:25;22.10;99.90
324;DHT22;149;51.094;17.002;2023-09-19T09:56:08;22.10;99.90
324;DHT22;149;51.094;17.002;2023-09-19T09:58:52;22.20;99.90
324;DHT22;149;51.094;17.002;2023-09-19T10:01:27;22.30;99.90
324;DHT22;149;51.094;17.002;2023-09-19T10:03:58;22.20;99.90
324;DHT22;149;51.094;17.002;2023-09-19T10:06:40;22.30;99.90
324;DHT22;149;51.094;17.002;2023-09-19T10:09:14;22.20;99.90
324;DHT22;149;51.094;17.002;2023-09-19T10:11:46;22.30;99.90
324;DHT22;149;51.094;17.002;2023-09-19T10:14:18;22.50;99.90
324;DHT22;149;51.094;17.002;2023-09-19T10:16:53;22.80;99.90
324;DHT22;149;51.094;17.002;2023-09-19T10:19:36;22.90;99.90
324;DHT22;149;51.094;17.002;2023-09-19T10:22:07;23.10;99.90
324;DHT22;149;51.094;17.002;2023-09-19T10:24:41;22.70;99.90
324;DHT22;149;51.094;17.002;2023-09-19T10:27:29;22.60;99.90
324;DHT22;149;51.094;17.002;2023-09-19T10:30:06;22.20;99.90
324;DHT22;149;51.094;17.002;2023-09-19T10:32:35;21.90;99.90
324;DHT22;149;51.094;17.002;2023-09-19T10:35:11;21.30;99.90
324;DHT22;149;51.094;17.002;2023-09-19T10:37:41;21.40;99.90
324;DHT22;149;51.094;17.002;2023-09-19T10:40:13;21.50;99.90
324;DHT22;149;51.094;17.002;2023-09-19T10:42:44;21.50;99.90
324;DHT22;149;51.094;17.002;2023-09-19T10:45:13;22.00;99.90
324;DHT22;149;51.094;17.002;2023-09-19T10:47:43;22.50;99.90
324;DHT22;149;51.094;17.002;2023-09-19T10:50:19;23.00;99.90
324;DHT22;149;51.094;17.002;2023-09-19T10:52:49;23.10;99.90
324;DHT22;149;51.094;17.002;2023-09-19T10:55:26;23.10;99.90
324;DHT22;149;51.094;17.002;2023-09-19T10:57:59;22.90;99.90
324;DHT22;149;51.094;17.002;2023-09-19T11:00:35;22.60;99.90
324;DHT22;149;51.094;17.002;2023-09-19T11:03:20;23.00;99.90
324;DHT22;149;51.094;17.002;2023-09-19T11:06:23;23.10;99.90
324;DHT22;149;51.094;17.002;2023-09-19T11:09:04;23.20;99.90
324;DHT22;149;51.094;17.002;2023-09-19T11:11:52;23.30;99.90
324;DHT22;149;51.094;17.002;2023-09-19T11:30:44;23.00;99.90
324;DHT22;149;51.094;17.002;2023-09-19T11:33:17;23.30;99.90
324;DHT22;149;51.094;17.002;2023-09-19T11:36:35;23.30;99.90
324;DHT22;149;51.094;17.002;2023-09-19T11:39:11;23.40;99.90
324;DHT22;149;51.094;17.002;2023-09-19T11:41:53;23.00;99.90
324;DHT22;149;51.094;17.002;2023-09-19T11:47:06;22.80;99.90
324;DHT22;149;51.094;17.002;2023-09-19T11:49:33;22.70;99.90
324;DHT22;149;51.094;17.002;2023-09-19T11:52:02;22.50;99.90
324;DHT22;149;51.094;17.002;2023-09-19T11:54:40;22.50;99.90
324;DHT22;149;51.094;17.002;2023-09-19T11:57:10;22.70;99.90
324;DHT22;149;51.094;17.002;2023-09-19T11:59:42;22.90;99.90
324;DHT22;149;51.094;17.002;2023-09-19T12:02:32;23.10;99.90
324;DHT22;149;51.094;17.002;2023-09-19T12:05:04;23.00;99.90
324;DHT22;149;51.094;17.002;2023-09-19T12:07:44;23.40;99.90
324;DHT22;149;51.094;17.002;2023-09-19T12:10:16;23.60;99.90
324;DHT22;149;51.094;17.002;2023-09-19T12:12:52;23.80;99.90
324;DHT22;149;51.094;17.002;2023-09-19T12:15:24;24.00;99.90
324;DHT22;149;51.094;17.002;2023-09-19T12:17:55;24.20;99.90
324;DHT22;149;51.094;17.002;2023-09-19T12:20:22;24.20;99.90
324;DHT22;149;51.094;17.002;2023-09-19T12:22:50;24.30;99.90
324;DHT22;149;51.094;17.002;2023-09-19T12:25:17;24.40;99.90
324;DHT22;149;51.094;17.002;2023-09-19T12:27:46;24.20;99.90
324;DHT22;149;51.094;17.002;2023-09-19T12:30:16;23.90;99.90
324;DHT22;149;51.094;17.002;2023-09-19T12:32:53;24.00;99.90
324;DHT22;149;51.094;17.002;2023-09-19T12:35:30;24.00;99.90
324;DHT22;149;51.094;17.002;2023-09-19T12:38:03;24.00;99.70
324;DHT22;149;51.094;17.002;2023-09-19T12:40:33;24.00;98.60
324;DHT22;149;51.094;17.002;2023-09-19T12:43:05;23.90;99.00
324;DHT22;149;51.094;17.002;2023-09-19T12:45:35;23.90;98.70
324;DHT22;149;51.094;17.002;2023-09-19T12:48:21;24.00;98.20
324;DHT22;149;51.094;17.002;2023-09-19T12:51:07;23.70;98.70
324;DHT22;149;51.094;17.002;2023-09-19T12:53:44;23.80;98.10
324;DHT22;149;51.094;17.002;2023-09-19T12:56:16;23.80;97.90
324;DHT22;149;51.094;17.002;2023-09-19T12:58:56;23.80;97.30
324;DHT22;149;51.094;17.002;2023-09-19T13:01:26;23.70;97.60
324;DHT22;149;51.094;17.002;2023-09-19T13:04:16;23.50;97.80
324;DHT22;149;51.094;17.002;2023-09-19T13:06:49;23.60;97.30
324;DHT22;149;51.094;17.002;2023-09-19T13:09:19;23.50;96.70
324;DHT22;149;51.094;17.002;2023-09-19T13:11:49;23.40;97.20
324;DHT22;149;51.094;17.002;2023-09-19T13:14:27;23.40;97.60
324;DHT22;149;51.094;17.002;2023-09-19T13:17:07;23.40;97.60
324;DHT22;149;51.094;17.002;2023-09-19T13:19:59;23.40;98.20
324;DHT22;149;51.094;17.002;2023-09-19T13:22:49;23.40;98.10
324;DHT22;149;51.094;17.002;2023-09-19T13:25:27;23.50;97.80
324;DHT22;149;51.094;17.002;2023-09-19T13:28:13;23.50;97.60
324;DHT22;149;51.094;17.002;2023-09-19T13:30:49;23.50;97.80
324;DHT22;149;51.094;17.002;2023-09-19T13:33:19;23.50;97.90
324;DHT22;149;51.094;17.002;2023-09-19T13:35:51;23.50;97.00
324;DHT22;149;51.094;17.002;2023-09-19T13:38:31;23.40;97.60
324;DHT22;149;51.094;17.002;2023-09-19T13:41:02;23.40;98.00
324;DHT22;149;51.094;17.002;2023-09-19T13:43:37;23.30;97.90
324;DHT22;149;51.094;17.002;2023-09-19T13:46:06;23.10;98.20
324;DHT22;149;51.094;17.002;2023-09-19T13:48:42;23.10;98.60
324;DHT22;149;51.094;17.002;2023-09-19T13:51:12;23.20;98.70
324;DHT22;149;51.094;17.002;2023-09-19T13:53:39;23.20;98.80
324;DHT22;149;51.094;17.002;2023-09-19T13:56:06;23.00;98.90
324;DHT22;149;51.094;17.002;2023-09-19T13:58:36;23.20;99.00
324;DHT22;149;51.094;17.002;2023-09-19T14:01:06;23.20;99.00
324;DHT22;149;51.094;17.002;2023-09-19T14:03:39;23.10;98.00
324;DHT22;149;51.094;17.002;2023-09-19T14:06:07;23.10;98.50
324;DHT22;149;51.094;17.002;2023-09-19T14:08:36;23.20;98.10
324;DHT22;149;51.094;17.002;2023-09-19T14:11:06;23.10;98.30
324;DHT22;149;51.094;17.002;2023-09-19T14:13:34;23.10;97.50
324;DHT22;149;51.094;17.002;2023-09-19T14:16:07;22.90;97.80
324;DHT22;149;51.094;17.002;2023-09-19T14:18:35;22.80;97.90
324;DHT22;149;51.094;17.002;2023-09-19T14:21:04;22.90;98.20
324;DHT22;149;51.094;17.002;2023-09-19T14:23:41;22.90;98.40
324;DHT22;149;51.094;17.002;2023-09-19T14:26:11;22.90;97.90
324;DHT22;149;51.094;17.002;2023-09-19T14:28:41;22.80;98.30
324;DHT22;149;51.094;17.002;2023-09-19T14:31:12;22.70;98.50
324;DHT22;149;51.094;17.002;2023-09-19T14:33:44;22.70;98.80
324;DHT22;149;51.094;17.002;2023-09-19T14:36:12;22.90;98.90
324;DHT22;149;51.094;17.002;2023-09-19T14:38:51;22.70;98.60
324;DHT22;149;51.094;17.002;2023-09-19T14:41:28;22.70;98.30
324;DHT22;149;51.094;17.002;2023-09-19T14:46:32;22.80;98.80
324;DHT22;149;51.094;17.002;2023-09-19T14:49:20;22.90;98.70
324;DHT22;149;51.094;17.002;2023-09-19T14:51:47;22.80;98.40
324;DHT22;149;51.094;17.002;2023-09-19T14:54:16;22.80;98.70
324;DHT22;149;51.094;17.002;2023-09-19T14:56:45;23.00;98.60
324;DHT22;149;51.094;17.002;2023-09-19T14:59:28;23.10;98.90
324;DHT22;149;51.094;17.002;2023-09-19T15:01:58;22.80;99.10
324;DHT22;149;51.094;17.002;2023-09-19T15:04:32;22.90;98.70
324;DHT22;149;51.094;17.002;2023-09-19T15:07:01;22.90;98.80
324;DHT22;149;51.094;17.002;2023-09-19T15:09:29;22.80;98.90
324;DHT22;149;51.094;17.002;2023-09-19T15:11:59;22.80;99.20
324;DHT22;149;51.094;17.002;2023-09-19T15:14:27;22.80;99.20
324;DHT22;149;51.094;17.002;2023-09-19T15:17:03;22.80;99.00
324;DHT22;149;51.094;17.002;2023-09-19T15:19:38;22.70;99.30
324;DHT22;149;51.094;17.002;2023-09-19T15:22:07;22.70;98.80
324;DHT22;149;51.094;17.002;2023-09-19T15:24:35;22.70;99.30
324;DHT22;149;51.094;17.002;2023-09-19T15:27:06;22.60;99.80
324;DHT22;149;51.094;17.002;2023-09-19T15:29:33;22.60;99.90
324;DHT22;149;51.094;17.002;2023-09-19T15:32:03;22.60;99.90
324;DHT22;149;51.094;17.002;2023-09-19T15:34:30;22.60;99.80
324;DHT22;149;51.094;17.002;2023-09-19T15:37:00;22.40;99.80
324;DHT22;149;51.094;17.002;2023-09-19T15:39:56;22.60;99.90
324;DHT22;149;51.094;17.002;2023-09-19T15:42:25;22.50;99.70
324;DHT22;149;51.094;17.002;2023-09-19T15:47:55;22.50;99.90
324;DHT22;149;51.094;17.002;2023-09-19T15:50:22;22.50;99.90
324;DHT22;149;51.094;17.002;2023-09-19T15:52:53;22.40;99.90
324;DHT22;149;51.094;17.002;2023-09-19T15:55:21;22.30;99.90
324;DHT22;149;51.094;17.002;2023-09-19T15:57:48;22.30;99.90
324;DHT22;149;51.094;17.002;2023-09-19T16:00:18;22.20;99.90
324;DHT22;149;51.094;17.002;2023-09-19T16:02:49;22.10;99.90
324;DHT22;149;51.094;17.002;2023-09-19T16:05:27;21.90;99.90
324;DHT22;149;51.094;17.002;2023-09-19T16:07:54;21.80;99.90
324;DHT22;149;51.094;17.002;2023-09-19T16:10:22;21.60;99.90
324;DHT22;149;51.094;17.002;2023-09-19T16:12:49;21.50;99.90
324;DHT22;149;51.094;17.002;2023-09-19T16:15:20;21.50;99.90
324;DHT22;149;51.094;17.002;2023-09-19T16:17:47;21.40;99.90
324;DHT22;149;51.094;17.002;2023-09-19T16:20:14;21.30;99.90
324;DHT22;149;51.094;17.002;2023-09-19T16:22:45;21.20;99.90
324;DHT22;149;51.094;17.002;2023-09-19T16:25:13;21.10;99.90
324;DHT22;149;51.094;17.002;2023-09-19T16:27:40;21.00;99.90
324;DHT22;149;51.094;17.002;2023-09-19T16:30:07;21.00;99.90
324;DHT22;149;51.094;17.002;2023-09-19T16:32:36;21.00;99.90
324;DHT22;149;51.094;17.002;2023-09-19T16:35:05;20.90;99.90
324;DHT22;149;51.094;17.002;2023-09-19T16:37:32;20.90;99.90
324;DHT22;149;51.094;17.002;2023-09-19T16:39:59;20.80;99.90
324;DHT22;149;51.094;17.002;2023-09-19T16:42:26;20.60;99.90
324;DHT22;149;51.094;17.002;2023-09-19T16:45:04;20.50;99.90
324;DHT22;149;51.094;17.002;2023-09-19T16:47:31;20.50;99.90
324;DHT22;149;51.094;17.002;2023-09-19T16:49:58;20.40;99.90
324;DHT22;149;51.094;17.002;2023-09-19T16:52:25;20.30;99.90
324;DHT22;149;51.094;17.002;2023-09-19T16:54:55;20.30;99.90
324;DHT22;149;51.094;17.002;2023-09-19T16:57:22;20.00;99.90
324;DHT22;149;51.094;17.002;2023-09-19T16:59:50;20.10;99.90
324;DHT22;149;51.094;17.002;2023-09-19T17:02:16;20.00;99.90
324;DHT22;149;51.094;17.002;2023-09-19T17:04:44;19.90;99.90
324;DHT22;149;51.094;17.002;2023-09-19T17:07:11;19.80;99.90
324;DHT22;149;51.094;17.002;2023-09-19T17:09:38;19.80;99.90
324;DHT22;149;51.094;17.002;2023-09-19T17:12:06;19.70;99.90
324;DHT22;149;51.094;17.002;2023-09-19T17:14:35;19.60;99.90
324;DHT22;149;51.094;17.002;2023-09-19T17:17:07;19.50;99.90
324;DHT22;149;51.094;17.002;2023-09-19T17:19:39;19.40;99.90
324;DHT22;149;51.094;17.002;2023-09-19T17:22:10;19.30;99.90
324;DHT22;149;51.094;17.002;2023-09-19T17:24:38;19.20;99.90
324;DHT22;149;51.094;17.002;2023-09-19T17:27:05;19.10;99.90
324;DHT22;149;51.094;17.002;2023-09-19T17:29:32;19.00;99.90
324;DHT22;149;51.094;17.002;2023-09-19T17:32:00;19.00;99.90
324;DHT22;149;51.094;17.002;2023-09-19T17:34:28;18.80;99.90
324;DHT22;149;51.094;17.002;2023-09-19T17:36:58;18.80;99.90
324;DHT22;149;51.094;17.002;2023-09-19T17:39:26;18.70;99.90
324;DHT22;149;51.094;17.002;2023-09-19T17:41:56;18.70;99.90
324;DHT22;149;51.094;17.002;2023-09-19T17:44:25;18.80;99.90
324;DHT22;149;51.094;17.002;2023-09-19T17:46:52;18.60;99.90
324;DHT22;149;51.094;17.002;2023-09-19T17:49:19;18.50;99.90
324;DHT22;149;51.094;17.002;2023-09-19T17:51:48;18.60;99.90
324;DHT22;149;51.094;17.002;2023-09-19T17:54:15;18.30;99.90
324;DHT22;149;51.094;17.002;2023-09-19T17:56:43;18.50;99.90
324;DHT22;149;51.094;17.002;2023-09-19T17:59:12;18.50;99.90
324;DHT22;149;51.094;17.002;2023-09-19T18:01:41;18.50;99.90
324;DHT22;149;51.094;17.002;2023-09-19T18:04:10;18.40;99.90
324;DHT22;149;51.094;17.002;2023-09-19T18:06:38;18.40;99.90
324;DHT22;149;51.094;17.002;2023-09-19T18:09:20;18.40;99.90
324;DHT22;149;51.094;17.002;2023-09-19T18:11:49;18.40;99.90
324;DHT22;149;51.094;17.002;2023-09-19T18:14:17;18.20;99.90
324;DHT22;149;51.094;17.002;2023-09-19T18:16:44;18.20;99.90
324;DHT22;149;51.094;17.002;2023-09-19T18:19:11;18.10;99.90
324;DHT22;149;51.094;17.002;2023-09-19T18:21:39;18.10;99.90
324;DHT22;149;51.094;17.002;2023-09-19T18:24:14;18.00;99.90
324;DHT22;149;51.094;17.002;2023-09-19T18:26:41;17.90;99.90
324;DHT22;149;51.094;17.002;2023-09-19T18:29:09;17.80;99.90
324;DHT22;149;51.094;17.002;2023-09-19T18:31:39;17.70;99.90
324;DHT22;149;51.094;17.002;2023-09-19T18:34:08;17.70;99.90
324;DHT22;149;51.094;17.002;2023-09-19T18:36:36;17.70;99.90
324;DHT22;149;51.094;17.002;2023-09-19T18:39:04;17.60;99.90
324;DHT22;149;51.094;17.002;2023-09-19T18:41:31;17.60;99.90
324;DHT22;149;51.094;17.002;2023-09-19T18:44:01;17.50;99.90
324;DHT22;149;51.094;17.002;2023-09-19T18:46:28;17.40;99.90
324;DHT22;149;51.094;17.002;2023-09-19T18:48:57;17.40;99.90
324;DHT22;149;51.094;17.002;2023-09-19T18:51:25;17.30;99.90
324;DHT22;149;51.094;17.002;2023-09-19T18:53:52;17.20;99.90
324;DHT22;149;51.094;17.002;2023-09-19T18:56:37;17.10;99.90
324;DHT22;149;51.094;17.002;2023-09-19T18:59:04;17.00;99.90
324;DHT22;149;51.094;17.002;2023-09-19T19:01:35;17.00;99.90
324;DHT22;149;51.094;17.002;2023-09-19T19:04:02;16.90;99.90
324;DHT22;149;51.094;17.002;2023-09-19T19:06:37;16.80;99.90
324;DHT22;149;51.094;17.002;2023-09-19T19:09:05;16.80;99.90
324;DHT22;149;51.094;17.002;2023-09-19T19:11:33;16.70;99.90
324;DHT22;149;51.094;17.002;2023-09-19T19:22:02;16.40;99.90
324;DHT22;149;51.094;17.002;2023-09-19T19:24:32;16.40;99.90
324;DHT22;149;51.094;17.002;2023-09-19T19:27:08;16.40;99.90
324;DHT22;149;51.094;17.002;2023-09-19T19:29:38;16.30;99.90
324;DHT22;149;51.094;17.002;2023-09-19T19:32:06;16.30;99.90
324;DHT22;149;51.094;17.002;2023-09-19T19:34:33;16.20;99.90
324;DHT22;149;51.094;17.002;2023-09-19T19:42:17;16.10;99.90
324;DHT22;149;51.094;17.002;2023-09-19T19:44:46;16.00;99.90
324;DHT22;149;51.094;17.002;2023-09-19T19:49:59;16.00;99.90
324;DHT22;149;51.094;17.002;2023-09-19T19:52:26;15.90;99.90
324;DHT22;149;51.094;17.002;2023-09-19T19:54:56;15.90;99.90
324;DHT22;149;51.094;17.002;2023-09-19T19:57:25;15.90;99.90
324;DHT22;149;51.094;17.002;2023-09-19T19:59:52;15.80;99.90
324;DHT22;149;51.094;17.002;2023-09-19T20:02:23;15.70;99.90
324;DHT22;149;51.094;17.002;2023-09-19T20:04:50;15.70;99.90
324;DHT22;149;51.094;17.002;2023-09-19T20:07:20;15.70;99.90
324;DHT22;149;51.094;17.002;2023-09-19T20:09:49;15.70;99.90
324;DHT22;149;51.094;17.002;2023-09-19T20:12:16;15.60;99.90
324;DHT22;149;51.094;17.002;2023-09-19T20:14:46;15.50;99.90
324;DHT22;149;51.094;17.002;2023-09-19T20:17:13;15.50;99.90
324;DHT22;149;51.094;17.002;2023-09-19T20:19:41;15.40;99.90
324;DHT22;149;51.094;17.002;2023-09-19T20:22:14;15.40;99.90
324;DHT22;149;51.094;17.002;2023-09-19T20:24:42;15.30;99.90
324;DHT22;149;51.094;17.002;2023-09-19T20:27:10;15.30;99.90
324;DHT22;149;51.094;17.002;2023-09-19T20:29:40;15.20;99.90
324;DHT22;149;51.094;17.002;2023-09-19T20:32:08;15.30;99.90
324;DHT22;149;51.094;17.002;2023-09-19T20:34:36;15.30;99.90
324;DHT22;149;51.094;17.002;2023-09-19T20:37:03;15.30;99.90